Time;durP1;ratioP1;P1;durP2;ratioP2;P2;SDS_P1;SDS_P2;PMS_P1;PMS_P2;Temp;Humidity;BMP_temperature;BMP_pressure;BME280_temperature;BME280_humidity;BME280_pressure;Samples;Min_cycle;Max_cycle;Signal;HPM_P1;HPM_P2
2022/10/21 00:01:27;;;;;;;4.70;3.90;;;;;;;14.22;94.19;101177.72;4966921;28;20037;-86
2022/10/21 00:03:53;;;;;;;5.68;3.00;;;;;;;14.22;94.36;101175.09;4968612;28;20023;-87
2022/10/21 00:06:18;;;;;;;8.07;3.17;;;;;;;14.19;94.37;101180.66;4966850;28;20064;-88
2022/10/21 00:08:44;;;;;;;7.97;3.50;;;;;;;14.19;94.25;101173.59;4969821;28;20035;-87
2022/10/21 00:11:09;;;;;;;5.55;3.58;;;;;;;14.24;93.80;101168.75;4969024;28;20027;-87
2022/10/21 00:13:38;;;;;;;10.52;3.08;;;;;;;14.27;93.60;101178.09;4968395;28;20152;-86
2022/10/21 00:16:11;;;;;;;6.80;3.78;;;;;;;14.31;93.35;101178.63;4966737;28;20089;-85
2022/10/21 00:18:38;;;;;;;7.03;3.95;;;;;;;14.28;93.98;101177.13;4967770;28;20039;-86
2022/10/21 00:21:06;;;;;;;5.00;3.47;;;;;;;14.23;95.54;101174.97;4970935;28;20026;-85
2022/10/21 00:23:31;;;;;;;7.32;4.43;;;;;;;14.11;96.81;101184.03;4968018;28;20114;-87
2022/10/21 00:25:57;;;;;;;6.05;4.20;;;;;;;14.01;98.84;101182.47;4969488;28;20554;-88
2022/10/21 00:28:22;;;;;;;4.47;4.03;;;;;;;13.91;100.00;101172.06;4965355;28;20038;-87
2022/10/21 00:30:49;;;;;;;9.80;4.47;;;;;;;13.81;100.00;101164.25;4967612;28;20035;-88
2022/10/21 00:33:15;;;;;;;6.63;4.68;;;;;;;13.81;100.00;101166.06;4967210;28;20323;-89
2022/10/21 00:35:40;;;;;;;6.95;4.65;;;;;;;13.80;100.00;101167.03;4969660;28;20089;-88
2022/10/21 00:38:06;;;;;;;8.20;5.50;;;;;;;13.76;100.00;101169.13;4969249;28;20462;-86
2022/10/21 00:40:31;;;;;;;8.35;4.70;;;;;;;13.77;100.00;101168.13;4967465;28;20034;-87
2022/10/21 00:42:57;;;;;;;9.27;5.05;;;;;;;13.77;100.00;101169.94;4966449;28;20023;-88
2022/10/21 00:45:26;;;;;;;8.98;4.93;;;;;;;13.78;100.00;101161.09;4969511;28;20031;-88
2022/10/21 00:48:00;;;;;;;6.85;5.10;;;;;;;13.76;100.00;101163.06;4968361;28;20023;-89
2022/10/21 00:50:29;;;;;;;7.40;5.07;;;;;;;13.81;100.00;101159.00;4967820;28;20034;-90
2022/10/21 00:52:56;;;;;;;6.57;5.05;;;;;;;13.84;100.00;101155.28;4967596;28;20453;-88
2022/10/21 00:55:24;;;;;;;9.55;4.90;;;;;;;13.82;100.00;101157.22;4968750;28;20039;-86
2022/10/21 00:57:50;;;;;;;10.10;5.55;;;;;;;13.81;100.00;101153.78;4962809;28;20046;-88
2022/10/21 01:00:16;;;;;;;6.82;4.65;;;;;;;13.79;100.00;101154.91;4967344;28;20049;-86
2022/10/21 01:02:42;;;;;;;6.07;4.75;;;;;;;13.79;100.00;101152.28;4966901;28;20049;-87
2022/10/21 01:05:10;;;;;;;6.53;5.45;;;;;;;13.75;100.00;101150.94;4967123;28;20617;-87
2022/10/21 01:07:35;;;;;;;10.65;4.68;;;;;;;13.73;100.00;101140.59;4967189;28;20178;-88
2022/10/21 01:10:01;;;;;;;7.38;4.25;;;;;;;13.79;100.00;101137.38;4967198;28;20056;-87
2022/10/21 01:12:34;;;;;;;5.07;4.40;;;;;;;13.89;100.00;101137.31;4965784;28;20046;-88
2022/10/21 01:15:20;;;;;;;6.30;3.92;;;;;;;14.07;100.00;101121.59;4966165;28;20047;-87
2022/10/21 01:17:57;;;;;;;7.35;4.00;;;;;;;14.15;98.08;101126.91;4968484;28;20141;-87
2022/10/21 01:20:41;;;;;;;6.57;3.42;;;;;;;14.20;96.71;101128.09;4968168;28;20041;-87
2022/10/21 01:23:15;;;;;;;5.88;3.20;;;;;;;14.25;96.73;101130.25;4965895;28;20049;-89
2022/10/21 01:26:39;;;;;;;6.72;3.72;;;;;;;14.25;95.89;101122.38;4963226;28;20034;-86
2022/10/21 01:29:26;;;;;;;6.82;3.92;;;;;;;14.27;95.52;101121.25;4943126;29;20039;-87
2022/10/21 01:31:51;;;;;;;;;;;;;;;14.29;95.19;101121.09;4929045;29;20074;-85
2022/10/21 01:34:38;;;;;;;5.65;3.80;;;;;;;14.29;95.90;101114.06;4946060;29;20442;-87
2022/10/21 01:37:09;;;;;;;8.63;5.65;;;;;;;14.12;98.44;101117.56;4944824;29;20448;-88
2022/10/21 01:39:40;;;;;;;8.90;5.82;;;;;;;14.01;99.81;101125.66;4930045;29;20047;-86
2022/10/21 01:42:18;;;;;;;8.63;4.57;;;;;;;13.93;100.00;101122.97;4928028;29;20462;-88
2022/10/21 01:44:51;;;;;;;10.30;3.80;;;;;;;14.00;98.14;101113.53;4942436;29;20463;-89
2022/10/21 01:47:23;;;;;;;10.55;3.58;;;;;;;14.10;96.98;101114.28;4965939;28;20027;-86
2022/10/21 01:49:56;;;;;;;9.30;3.10;;;;;;;14.11;96.80;101104.63;4962495;29;20043;-87
2022/10/21 01:52:22;;;;;;;7.00;3.40;;;;;;;14.09;96.39;101110.00;4958281;29;20369;-88
2022/10/21 01:54:57;;;;;;;4.55;3.05;;;;;;;14.10;96.34;101098.53;4945190;29;20048;-87
2022/10/21 01:57:26;;;;;;;6.60;3.42;;;;;;;14.10;96.67;101093.31;4941613;29;20503;-86
2022/10/21 01:59:53;;;;;;;4.93;3.30;;;;;;;14.17;95.81;101106.63;4957927;28;20050;-85
2022/10/21 02:02:21;;;;;;;9.32;3.15;;;;;;;14.21;95.17;101097.47;4967030;28;20035;-87
2022/10/21 02:04:49;;;;;;;5.97;3.22;;;;;;;14.24;94.97;101099.78;4968154;28;20031;-88
2022/10/21 02:07:15;;;;;;;3.03;2.78;;;;;;;14.24;95.08;101097.97;4967486;28;20042;-88
2022/10/21 02:09:40;;;;;;;5.18;3.30;;;;;;;14.25;95.26;101093.56;4968183;28;20568;-89
2022/10/21 02:12:06;;;;;;;6.95;3.20;;;;;;;14.26;95.27;101098.66;4966570;28;20035;-86
2022/10/21 02:14:49;;;;;;;8.10;3.35;;;;;;;14.25;95.79;101102.25;4966964;28;20039;-88
2022/10/21 02:17:18;;;;;;;13.90;4.20;;;;;;;14.25;95.63;101097.00;4968974;28;20043;-86
2022/10/21 02:19:45;;;;;;;8.70;3.85;;;;;;;14.26;95.68;101098.66;4967059;28;20035;-87
2022/10/21 02:22:13;;;;;;;10.68;3.65;;;;;;;14.27;95.67;101099.47;4966734;28;20182;-86
2022/10/21 02:24:52;;;;;;;5.40;4.00;;;;;;;14.26;96.60;101103.06;4955930;28;20062;-89
2022/10/21 02:27:19;;;;;;;6.50;3.67;;;;;;;14.19;97.82;101097.59;4969757;28;20205;-85
2022/10/21 02:29:47;;;;;;;5.70;4.18;;;;;;;14.19;97.59;101109.88;4964855;28;20027;-86
2022/10/21 02:32:29;;;;;;;5.60;3.83;;;;;;;14.21;96.11;101119.25;4965641;28;20027;-88
2022/10/21 02:35:22;;;;;;;4.55;3.17;;;;;;;14.26;95.65;101113.56;4965258;28;20038;-88
2022/10/21 02:37:58;;;;;;;6.45;3.17;;;;;;;14.26;95.60;101114.38;4971754;28;20039;-86
2022/10/21 02:40:44;;;;;;;11.82;3.30;;;;;;;14.26;95.85;101113.56;4962877;28;20026;-86
2022/10/21 02:43:16;;;;;;;9.05;3.35;;;;;;;14.28;95.46;101119.47;4966554;28;20043;-87
2022/10/21 02:45:45;;;;;;;4.90;3.22;;;;;;;14.31;94.84;101119.16;4965109;28;20042;-87
2022/10/21 02:48:11;;;;;;;10.23;3.63;;;;;;;14.29;95.11;101116.69;4967876;28;20041;-86
2022/10/21 02:50:36;;;;;;;4.43;3.03;;;;;;;14.32;94.72;101127.84;4969115;28;20027;-87
2022/10/21 02:53:02;;;;;;;4.68;3.80;;;;;;;14.31;95.09;101118.34;4970037;28;21688;-87
2022/10/21 02:55:27;;;;;;;4.78;3.72;;;;;;;14.29;95.12;101118.50;4971021;28;20023;-87
2022/10/21 02:57:53;;;;;;;5.60;3.10;;;;;;;14.28;94.96;101117.66;4967909;28;20521;-87
2022/10/21 03:00:18;;;;;;;6.60;3.20;;;;;;;14.29;94.96;101108.00;4969626;28;20121;-87
2022/10/21 03:02:44;;;;;;;12.68;3.55;;;;;;;14.30;94.61;101109.66;4969454;28;20035;-86
2022/10/21 03:05:11;;;;;;;5.53;3.05;;;;;;;14.30;94.59;101107.03;4968906;28;20057;-86
2022/10/21 03:07:37;;;;;;;5.07;3.75;;;;;;;14.31;95.17;101105.22;4971538;28;20047;-89
2022/10/21 03:10:03;;;;;;;5.18;3.47;;;;;;;14.30;95.58;101101.78;4968528;28;20035;-86
2022/10/21 03:12:28;;;;;;;6.25;3.10;;;;;;;14.31;95.53;101100.00;4971439;28;20391;-89
2022/10/21 03:14:54;;;;;;;10.32;4.07;;;;;;;14.31;95.73;101102.63;4970775;28;20035;-88
2022/10/21 03:17:19;;;;;;;5.28;3.95;;;;;;;14.32;96.50;101104.25;4968393;28;20550;-88
2022/10/21 03:19:45;;;;;;;5.90;3.45;;;;;;;14.28;97.54;101107.19;4970901;28;20100;-89
2022/10/21 03:22:10;;;;;;;6.82;5.18;;;;;;;14.24;99.16;101105.84;4970933;28;20085;-88
2022/10/21 03:24:35;;;;;;;10.88;5.70;;;;;;;14.20;100.00;101099.25;4969706;28;20113;-88
2022/10/21 03:27:01;;;;;;;9.50;5.10;;;;;;;14.12;100.00;101112.31;4971006;28;20548;-89
2022/10/21 03:29:26;;;;;;;5.28;3.90;;;;;;;14.11;100.00;101110.69;4971113;28;20031;-88
2022/10/21 03:31:51;;;;;;;5.88;4.00;;;;;;;14.16;100.00;101100.56;4967744;28;20479;-89
2022/10/21 03:34:17;;;;;;;8.60;3.92;;;;;;;14.19;99.72;101110.72;5072236;23;20138;-87
2022/10/21 03:36:42;;;;;;;8.00;3.90;;;;;;;14.21;98.25;101103.53;4972109;28;20065;-86
2022/10/21 03:39:10;;;;;;;5.75;3.25;;;;;;;14.25;97.55;101112.72;4972534;28;20098;-88
2022/10/21 03:41:35;;;;;;;8.68;3.30;;;;;;;14.25;97.39;101115.34;4972349;28;20027;-89
2022/10/21 03:44:00;;;;;;;6.57;3.72;;;;;;;14.26;96.60;101119.63;4972194;28;20371;-87
2022/10/21 03:46:26;;;;;;;5.13;3.28;;;;;;;14.23;96.36;101114.69;4971912;28;20144;-89
2022/10/21 03:48:51;;;;;;;7.90;3.20;;;;;;;14.23;96.22;101114.69;4971527;28;20026;-88
2022/10/21 03:51:16;;;;;;;9.82;3.40;;;;;;;14.22;96.31;101112.22;4970432;28;20389;-88
2022/10/21 03:53:42;;;;;;;6.15;3.75;;;;;;;14.23;96.44;101124.34;4970296;28;20023;-86
2022/10/21 03:56:07;;;;;;;5.88;3.83;;;;;;;14.26;96.52;101111.75;4971727;28;20101;-87
2022/10/21 03:58:34;;;;;;;6.57;3.90;;;;;;;14.27;97.08;101108.16;4971844;28;20470;-88
2022/10/21 04:01:00;;;;;;;4.88;4.00;;;;;;;14.26;97.75;101114.38;4971787;28;20106;-87
2022/10/21 04:03:26;;;;;;;5.32;4.22;;;;;;;14.21;98.60;101107.94;4971391;28;20031;-88
2022/10/21 04:05:52;;;;;;;7.13;3.92;;;;;;;14.20;98.14;101101.06;4971577;28;20445;-87
2022/10/21 04:08:17;;;;;;;8.75;4.00;;;;;;;14.22;97.73;101106.97;4971779;28;20112;-89
2022/10/21 04:10:44;;;;;;;8.88;4.18;;;;;;;14.24;97.93;101113.69;4969936;28;20150;-89
2022/10/21 04:13:10;;;;;;;8.48;5.10;;;;;;;14.22;99.19;101112.22;4970430;28;20371;-88
2022/10/21 04:15:35;;;;;;;7.53;4.30;;;;;;;14.17;100.00;101104.81;4969911;28;20034;-88
2022/10/21 04:18:01;;;;;;;6.88;5.03;;;;;;;14.10;100.00;101101.16;4971142;28;20103;-87
2022/10/21 04:20:26;;;;;;;12.43;5.45;;;;;;;14.04;100.00;101093.91;4969869;28;20027;-87
2022/10/21 04:22:52;;;;;;;8.05;5.85;;;;;;;14.06;100.00;101091.97;4970791;28;20489;-88
2022/10/21 04:25:17;;;;;;;14.00;5.82;;;;;;;14.04;100.00;101083.44;4970723;28;20030;-87
2022/10/21 04:27:42;;;;;;;10.48;5.90;;;;;;;14.00;100.00;101091.75;4972429;28;20117;-86
2022/10/21 04:30:08;;;;;;;9.95;5.93;;;;;;;13.97;100.00;101082.38;4996157;28;20019;-88
2022/10/21 04:32:34;;;;;;;12.13;6.07;;;;;;;13.96;100.00;101085.97;4989290;28;20031;-87
2022/10/21 04:34:59;;;;;;;9.80;6.47;;;;;;;13.89;100.00;101095.41;4978974;28;20047;-88
2022/10/21 04:37:24;;;;;;;8.00;5.85;;;;;;;13.87;100.00;101097.34;4968492;28;20424;-87
2022/10/21 04:39:50;;;;;;;7.75;5.65;;;;;;;13.88;100.00;101096.38;4970148;28;20038;-86
2022/10/21 04:42:15;;;;;;;9.10;5.20;;;;;;;13.91;100.00;101098.72;4970180;28;20038;-86
2022/10/21 04:44:41;;;;;;;7.55;5.30;;;;;;;13.91;100.00;101086.44;4968737;28;20031;-86
2022/10/21 04:47:06;;;;;;;9.75;5.53;;;;;;;13.91;100.00;101080.38;4968676;28;20364;-87
2022/10/21 04:49:32;;;;;;;8.00;5.95;;;;;;;13.91;100.00;101086.44;4969780;28;20026;-85
2022/10/21 04:51:57;;;;;;;9.50;4.85;;;;;;;13.93;100.00;101076.63;4970745;28;20041;-87
2022/10/21 04:54:22;;;;;;;7.75;4.50;;;;;;;13.98;100.00;101073.56;4970054;28;20027;-86
2022/10/21 04:56:48;;;;;;;7.55;3.90;;;;;;;14.03;100.00;101073.09;4969091;28;20030;-87
2022/10/21 04:59:13;;;;;;;11.07;4.35;;;;;;;14.04;100.00;101080.00;4968996;28;20023;-88
2022/10/21 05:01:39;;;;;;;5.85;3.45;;;;;;;14.03;99.86;101071.31;4970424;28;20081;-88
2022/10/21 05:04:04;;;;;;;11.63;3.45;;;;;;;14.03;99.51;101065.25;4970482;28;20037;-86
2022/10/21 05:06:30;;;;;;;10.57;4.32;;;;;;;14.04;99.23;101061.66;4968454;28;20038;-88
2022/10/21 05:08:55;;;;;;;10.80;3.60;;;;;;;14.06;99.39;101071.00;4970128;28;20038;-87
2022/10/21 05:11:21;;;;;;;7.95;4.05;;;;;;;14.08;99.48;101066.44;4969932;28;20050;-87
2022/10/21 05:13:46;;;;;;;7.20;4.40;;;;;;;14.09;100.00;101075.94;4968959;28;20035;-87
2022/10/21 05:16:12;;;;;;;14.45;5.18;;;;;;;14.09;100.00;101075.13;4968232;28;20042;-85
2022/10/21 05:18:37;;;;;;;9.15;4.90;;;;;;;14.07;100.00;101077.06;4969373;28;20054;-87
2022/10/21 05:21:03;;;;;;;6.55;4.45;;;;;;;14.01;100.00;101075.88;4970207;28;20031;-87
2022/10/21 05:23:28;;;;;;;8.55;5.18;;;;;;;13.97;100.00;101076.31;4970024;28;20105;-87
2022/10/21 05:25:54;;;;;;;8.52;5.82;;;;;;;13.87;100.00;101072.00;4969674;28;20026;-87
2022/10/21 05:28:20;;;;;;;9.95;4.97;;;;;;;13.84;100.00;101080.16;4969102;28;20027;-87
2022/10/21 05:30:46;;;;;;;6.65;4.45;;;;;;;13.90;100.00;101076.09;4967625;28;20121;-86
2022/10/21 05:33:11;;;;;;;7.47;3.78;;;;;;;13.93;100.00;101075.81;4968785;28;20034;-87
2022/10/21 05:35:37;;;;;;;5.57;3.30;;;;;;;13.97;100.00;101078.94;4967410;28;20054;-86
2022/10/21 05:38:03;;;;;;;11.70;4.30;;;;;;;13.95;100.00;101085.16;4969029;28;20106;-86
2022/10/21 05:40:30;;;;;;;12.88;5.18;;;;;;;13.95;100.00;101086.94;4969317;28;20042;-87
2022/10/21 05:42:55;;;;;;;7.63;4.32;;;;;;;13.95;100.00;101087.78;4970011;28;20027;-86
2022/10/21 05:45:21;;;;;;;9.10;4.25;;;;;;;13.97;100.00;101087.63;4969982;28;20038;-87
2022/10/21 05:47:46;;;;;;;14.85;5.25;;;;;;;13.95;100.00;101081.72;4968937;28;20097;-87
2022/10/21 05:50:12;;;;;;;7.47;4.22;;;;;;;13.94;100.00;101082.69;4969714;28;20113;-88
2022/10/21 05:52:38;;;;;;;10.35;5.80;;;;;;;13.91;100.00;101077.75;4970033;28;20386;-87
2022/10/21 05:55:04;;;;;;;12.50;6.80;;;;;;;13.88;100.00;101088.53;4969891;28;20559;-87
2022/10/21 05:57:34;;;;;;;8.60;5.00;;;;;;;13.88;100.00;101088.53;4968178;28;20061;-86
2022/10/21 06:00:00;;;;;;;11.40;5.72;;;;;;;13.92;100.00;101088.06;4967967;28;20027;-87
2022/10/21 06:02:25;;;;;;;10.85;5.32;;;;;;;13.92;100.00;101090.69;4967992;28;20030;-88
2022/10/21 06:04:51;;;;;;;10.45;4.72;;;;;;;13.90;100.00;101089.19;4969369;28;20027;-87
2022/10/21 06:07:16;;;;;;;8.23;4.05;;;;;;;13.91;100.00;101088.22;4969959;28;20417;-87
2022/10/21 06:09:42;;;;;;;9.15;4.20;;;;;;;13.92;100.00;101085.47;4968089;28;20438;-87
2022/10/21 06:12:07;;;;;;;9.63;4.72;;;;;;;13.98;100.00;101099.75;4969232;28;20027;-87
2022/10/21 06:14:35;;;;;;;8.57;4.70;;;;;;;14.00;100.00;101105.66;4967479;28;20030;-87
2022/10/21 06:17:02;;;;;;;12.63;4.25;;;;;;;14.01;100.00;101117.78;4969400;28;20034;-87
2022/10/21 06:19:27;;;;;;;10.30;4.15;;;;;;;14.00;99.83;101116.16;4969584;28;20510;-87
2022/10/21 06:21:53;;;;;;;10.43;3.70;;;;;;;14.01;99.72;101125.66;4969642;28;20031;-87
2022/10/21 06:24:19;;;;;;;7.82;3.50;;;;;;;14.00;99.34;101129.25;4969097;28;20039;-87
2022/10/21 06:26:44;;;;;;;11.68;4.25;;;;;;;14.04;99.54;101140.25;4972798;28;20486;-86
2022/10/21 06:29:09;;;;;;;7.25;4.32;;;;;;;14.03;99.53;101135.97;4973268;28;20165;-88
2022/10/21 06:31:35;;;;;;;9.48;3.97;;;;;;;14.02;100.00;101139.56;4975486;28;20078;-87
2022/10/21 06:34:00;;;;;;;8.38;3.83;;;;;;;14.01;100.00;101151.03;4973128;28;20478;-87
2022/10/21 06:36:26;;;;;;;10.45;4.70;;;;;;;14.05;100.00;101150.56;4972818;28;20482;-87
2022/10/21 06:38:51;;;;;;;13.07;3.88;;;;;;;14.09;99.56;101154.53;4973273;28;20019;-87
2022/10/21 06:41:17;;;;;;;6.32;3.85;;;;;;;14.12;99.32;101154.25;4973339;28;20034;-87
2022/10/21 06:43:43;;;;;;;12.68;5.50;;;;;;;14.16;99.51;101158.22;4971430;28;20069;-86
2022/10/21 06:46:11;;;;;;;9.18;3.92;;;;;;;14.19;99.76;101149.19;4970466;28;20066;-87
2022/10/21 06:48:37;;;;;;;11.30;4.15;;;;;;;14.19;99.59;101143.97;4969752;28;20069;-87
2022/10/21 06:51:06;;;;;;;10.63;4.75;;;;;;;14.20;99.34;101140.38;4971621;28;20475;-86
2022/10/21 06:53:31;;;;;;;11.80;4.93;;;;;;;14.22;99.39;101160.22;4969492;28;20134;-86
2022/10/21 06:56:07;;;;;;;8.95;4.45;;;;;;;14.27;99.06;101147.47;4975895;28;20035;-88
2022/10/21 06:58:34;;;;;;;16.42;4.38;;;;;;;14.33;99.19;101153.91;4990224;28;20053;-88
2022/10/21 07:01:09;;;;;;;7.97;4.30;;;;;;;14.36;99.54;101152.78;4965614;28;20078;-87
2022/10/21 07:03:35;;;;;;;11.43;4.05;;;;;;;14.42;99.00;101155.66;4965231;28;20142;-88
2022/10/21 07:06:01;;;;;;;7.38;4.70;;;;;;;14.49;98.51;101148.00;4971539;28;20435;-87
2022/10/21 07:08:28;;;;;;;9.00;3.60;;;;;;;14.53;98.44;101149.34;4972519;28;20063;-87
2022/10/21 07:10:53;;;;;;;6.55;4.18;;;;;;;14.52;98.92;101159.00;4969910;28;20110;-86
2022/10/21 07:13:20;;;;;;;12.13;5.20;;;;;;;14.58;99.25;101168.06;4972534;28;20101;-88
2022/10/21 07:15:45;;;;;;;8.27;4.53;;;;;;;14.65;99.98;101163.81;4970695;28;20110;-88
2022/10/21 07:18:11;;;;;;;12.32;7.28;;;;;;;14.68;100.00;101168.75;4971049;28;20022;-87
2022/10/21 07:20:36;;;;;;;16.40;8.10;;;;;;;14.72;100.00;101172.72;4970404;28;20113;-87
2022/10/21 07:23:01;;;;;;;14.93;7.80;;;;;;;14.73;100.00;101173.56;4968769;28;20359;-87
2022/10/21 07:25:27;;;;;;;11.52;6.78;;;;;;;14.74;100.00;101180.44;4967980;28;20089;-89
2022/10/21 07:27:52;;;;;;;24.65;8.00;;;;;;;14.79;100.00;101186.88;4969311;28;20034;-89
2022/10/21 07:30:18;;;;;;;17.08;7.20;;;;;;;14.85;100.00;101183.63;4970386;28;20143;-89
2022/10/21 07:32:43;;;;;;;11.63;5.78;;;;;;;14.88;100.00;101185.13;4968933;28;20101;-88
2022/10/21 07:35:09;;;;;;;6.93;5.10;;;;;;;14.91;100.00;101172.53;4971499;28;20054;-88
2022/10/21 07:37:34;;;;;;;8.93;4.57;;;;;;;14.96;100.00;101160.75;4963396;28;20031;-87
2022/10/21 07:39:59;;;;;;;9.15;3.78;;;;;;;15.01;100.00;101171.59;4965855;28;20062;-88
2022/10/21 07:42:27;;;;;;;6.72;3.67;;;;;;;15.06;99.37;101164.91;4969498;28;20081;-87
2022/10/21 07:44:58;;;;;;;10.05;4.88;;;;;;;15.13;99.06;101165.06;4970507;28;20114;-86
2022/10/21 07:47:24;;;;;;;10.10;5.30;;;;;;;15.20;99.36;101168.72;4964165;28;20047;-87
2022/10/21 07:49:50;;;;;;;10.35;5.78;;;;;;;15.30;99.95;101166.78;4965481;28;20041;-87
2022/10/21 07:52:16;;;;;;;12.32;6.90;;;;;;;15.37;100.00;101167.81;4969445;28;20031;-87
2022/10/21 07:54:41;;;;;;;14.48;6.10;;;;;;;15.42;100.00;101169.97;4968583;28;20548;-87
2022/10/21 07:57:07;;;;;;;10.57;6.38;;;;;;;15.47;100.00;101168.50;4959852;28;20110;-88
2022/10/21 07:59:32;;;;;;;11.55;6.75;;;;;;;15.51;100.00;101171.66;4968632;28;20022;-88
2022/10/21 08:01:58;;;;;;;11.90;7.15;;;;;;;15.52;100.00;101166.22;4969149;28;20058;-87
2022/10/21 08:04:28;;;;;;;12.25;6.63;;;;;;;15.49;100.00;101166.56;4964331;28;20027;-87
2022/10/21 08:06:54;;;;;;;10.73;6.90;;;;;;;15.44;100.00;101166.19;4965746;28;20113;-87
2022/10/21 08:09:20;;;;;;;10.90;6.80;;;;;;;15.48;100.00;101167.53;4967440;28;20520;-87
2022/10/21 08:11:45;;;;;;;18.40;7.57;;;;;;;15.47;100.00;101160.63;4974795;28;20642;-86
2022/10/21 08:14:12;;;;;;;12.50;7.82;;;;;;;15.53;100.00;101161.81;4966983;28;20304;-86
2022/10/21 08:16:37;;;;;;;12.75;7.80;;;;;;;15.62;100.00;101167.91;4964977;28;20207;-85
2022/10/21 08:19:03;;;;;;;12.70;7.90;;;;;;;15.67;100.00;101170.88;4968239;28;20166;-86
2022/10/21 08:21:30;;;;;;;11.98;7.20;;;;;;;15.70;100.00;101175.81;4967775;28;20035;-86
2022/10/21 08:23:56;;;;;;;12.18;7.20;;;;;;;15.75;100.00;101165.66;4967740;28;20113;-86
2022/10/21 08:26:22;;;;;;;13.40;7.00;;;;;;;15.77;100.00;101167.13;4967403;28;20045;-86
2022/10/21 08:28:47;;;;;;;12.50;7.50;;;;;;;15.81;100.00;101160.56;4968053;28;20032;-86
2022/10/21 08:31:19;;;;;;;17.83;7.63;;;;;;;15.85;100.00;101163.69;4967120;28;20053;-85
2022/10/21 08:33:45;;;;;;;20.92;7.10;;;;;;;15.85;100.00;101166.34;4952181;28;20047;-86
2022/10/21 08:36:16;;;;;;;10.32;6.63;;;;;;;15.87;100.00;101172.25;4965349;28;20129;-85
2022/10/21 08:38:41;;;;;;;20.77;7.05;;;;;;;15.93;100.00;101169.78;4967694;28;20033;-86
2022/10/21 08:41:37;;;;;;;11.85;6.97;;;;;;;16.00;100.00;101177.84;4970737;28;20039;-85
2022/10/21 08:44:17;;;;;;;7.70;5.80;;;;;;;16.07;100.00;101181.44;4945730;29;20186;-85
2022/10/21 08:46:53;;;;;;;10.55;6.57;;;;;;;16.14;100.00;101186.88;4944053;29;20092;-85
2022/10/21 08:49:47;;;;;;;7.90;6.55;;;;;;;16.12;100.00;101184.41;4930930;29;20055;-86
2022/10/21 08:52:18;;;;;;;10.15;5.75;;;;;;;16.07;100.00;101188.53;4937940;29;20048;-86
2022/10/21 08:54:53;;;;;;;12.32;5.53;;;;;;;16.10;100.00;101182.94;4937721;29;20538;-86
2022/10/21 08:57:18;;;;;;;9.30;6.50;;;;;;;16.11;100.00;101172.25;4939140;29;20399;-86
2022/10/21 08:59:45;;;;;;;9.18;5.90;;;;;;;16.16;100.00;101169.97;4941526;29;20033;-86
2022/10/21 09:02:16;;;;;;;15.15;5.60;;;;;;;16.17;99.72;101160.28;4938439;29;20047;-87
2022/10/21 09:05:02;;;;;;;14.18;6.60;;;;;;;16.18;99.68;101146.97;4932257;29;20669;-86
2022/10/21 09:07:36;;;;;;;;;;;;;;;16.22;99.77;101158.78;4948769;29;20113;-87
2022/10/21 09:10:14;;;;;;;8.95;6.03;;;;;;;16.29;99.34;101150.25;4948508;29;20396;-86
2022/10/21 09:13:14;;;;;;;10.57;6.50;;;;;;;16.34;98.20;101147.94;4949788;29;20066;-88
2022/10/21 09:15:55;;;;;;;7.68;5.78;;;;;;;16.40;98.86;101156.00;4940779;28;20043;-87
2022/10/21 09:18:29;;;;;;;12.07;6.45;;;;;;;16.49;97.40;101159.47;4931396;29;20043;-87
2022/10/21 09:21:28;;;;;;;11.80;5.70;;;;;;;16.61;96.57;101142.31;4959313;28;20066;-86
2022/10/21 09:24:00;;;;;;;8.60;5.88;;;;;;;16.74;96.33;101147.91;4969377;28;20482;-86
2022/10/21 09:26:33;;;;;;;6.78;5.43;;;;;;;16.84;96.07;101153.00;4995357;28;20023;-86
2022/10/21 09:29:13;;;;;;;8.32;5.47;;;;;;;16.89;94.85;101155.94;4974866;28;20382;-87
2022/10/21 09:31:39;;;;;;;6.60;5.45;;;;;;;16.96;94.12;101156.09;5001799;28;20118;-86
2022/10/21 09:34:14;;;;;;;13.45;6.20;;;;;;;17.04;93.86;101150.78;4969974;28;20123;-86
2022/10/21 09:36:46;;;;;;;10.98;6.45;;;;;;;17.07;93.92;101147.81;4968666;28;20050;-87
2022/10/21 09:39:43;;;;;;;7.80;5.40;;;;;;;17.14;93.26;101144.31;4968265;28;20064;-86
2022/10/21 09:42:12;;;;;;;9.70;6.25;;;;;;;17.19;93.56;101149.09;4949777;29;20450;-86
2022/10/21 09:44:38;;;;;;;11.18;7.57;;;;;;;17.21;92.88;101141.84;4959458;28;20031;-86
2022/10/21 09:47:22;;;;;;;9.93;6.90;;;;;;;17.26;92.37;101123.72;4971110;28;20088;-87
2022/10/21 09:49:57;;;;;;;8.77;5.63;;;;;;;17.33;92.07;101122.03;4979021;28;21506;-87
2022/10/21 09:52:29;;;;;;;8.65;7.22;;;;;;;17.46;92.12;101129.38;4982057;28;20039;-86
2022/10/21 09:54:55;;;;;;;15.27;7.72;;;;;;;17.53;91.60;101128.50;4981643;28;20031;-87
2022/10/21 09:57:50;;;;;;;17.33;8.43;;;;;;;17.59;91.24;101126.97;4979996;28;20015;-87
2022/10/21 10:00:16;;;;;;;12.53;8.67;;;;;;;17.67;91.37;101132.22;4964338;28;20087;-87
2022/10/21 10:02:44;;;;;;;12.93;8.93;;;;;;;17.78;92.13;101141.56;4968775;28;20793;-88
2022/10/21 10:05:32;;;;;;;11.60;8.88;;;;;;;17.77;90.31;101159.19;4968480;28;20117;-87
2022/10/21 10:07:57;;;;;;;16.05;10.07;;;;;;;17.74;91.05;101158.72;4969317;28;20034;-87
2022/10/21 10:10:32;;;;;;;15.93;8.95;;;;;;;17.74;92.44;101162.16;4967682;28;20034;-86
2022/10/21 10:12:58;;;;;;;14.02;8.52;;;;;;;17.73;92.54;101159.72;4969748;28;20037;-86
2022/10/21 10:15:35;;;;;;;13.48;8.27;;;;;;;17.82;93.00;101159.47;4968891;28;20058;-87
2022/10/21 10:18:01;;;;;;;13.65;7.82;;;;;;;17.96;93.40;101160.53;4969604;28;20031;-87
2022/10/21 10:20:26;;;;;;;8.23;6.70;;;;;;;18.02;92.95;101165.09;4966166;28;20031;-86
2022/10/21 10:22:57;;;;;;;11.98;7.35;;;;;;;18.05;93.92;101162.09;4967472;28;20027;-86
2022/10/21 10:25:29;;;;;;;14.40;7.50;;;;;;;18.01;93.77;101154.72;4968236;28;20043;-86
2022/10/21 10:28:00;;;;;;;15.32;8.85;;;;;;;18.11;93.47;101157.94;4968752;28;20118;-86
2022/10/21 10:30:37;;;;;;;8.52;6.05;;;;;;;18.23;94.40;101157.34;4966771;28;20176;-86
2022/10/21 10:33:30;;;;;;;8.70;6.18;;;;;;;18.38;94.17;101156.59;4967713;28;20528;-86
2022/10/21 10:35:59;;;;;;;7.72;5.60;;;;;;;18.38;94.59;101149.50;4962062;28;20551;-86
2022/10/21 10:38:39;;;;;;;10.00;5.85;;;;;;;18.43;94.59;101146.31;4968324;28;20548;-86
2022/10/21 10:41:14;;;;;;;8.25;6.53;;;;;;;18.50;95.00;101144.56;4964494;28;20043;-86
2022/10/21 10:43:54;;;;;;;8.43;5.68;;;;;;;18.55;95.83;101156.22;4967880;28;20037;-86
2022/10/21 10:46:22;;;;;;;7.45;5.53;;;;;;;18.62;95.42;101147.63;4967022;28;20039;-87
2022/10/21 10:48:50;;;;;;;10.07;5.53;;;;;;;18.62;96.20;101150.28;4967540;28;20035;-87
2022/10/21 10:51:24;;;;;;;7.50;5.70;;;;;;;18.58;96.87;101149.78;4963957;28;20069;-86
2022/10/21 10:54:00;;;;;;;6.35;5.38;;;;;;;18.54;97.51;101149.31;4967822;28;20058;-86
2022/10/21 10:56:30;;;;;;;9.68;5.43;;;;;;;18.61;97.86;101144.16;4965130;28;20093;-87
2022/10/21 10:59:04;;;;;;;5.57;4.60;;;;;;;18.64;98.04;101143.81;4966635;28;20038;-88
2022/10/21 11:01:36;;;;;;;5.20;4.00;;;;;;;18.62;97.86;101140.53;4966530;28;20169;-86
2022/10/21 11:04:26;;;;;;;6.82;4.35;;;;;;;18.57;98.74;101130.47;4959019;28;20101;-87
2022/10/21 11:06:59;;;;;;;4.50;3.70;;;;;;;18.60;98.81;101128.47;4959501;28;20041;-86
2022/10/21 11:09:26;;;;;;;5.80;4.72;;;;;;;18.66;98.34;101123.34;4964557;28;20038;-86
2022/10/21 11:11:54;;;;;;;4.65;3.70;;;;;;;18.69;98.16;101119.50;4965447;28;20026;-86
2022/10/21 11:14:21;;;;;;;8.57;3.88;;;;;;;18.72;97.86;101124.44;4969154;28;20149;-86
2022/10/21 11:16:57;;;;;;;5.72;4.00;;;;;;;18.71;97.72;101117.50;4966469;28;20031;-86
2022/10/21 11:19:34;;;;;;;5.85;4.03;;;;;;;18.69;98.15;101120.34;4968808;28;20045;-86
2022/10/21 11:22:07;;;;;;;5.65;3.67;;;;;;;18.75;97.57;101124.06;4967743;28;20543;-86
2022/10/21 11:24:58;;;;;;;4.25;3.55;;;;;;;18.85;96.78;101116.72;4969142;28;20058;-87
2022/10/21 11:27:45;;;;;;;4.90;3.50;;;;;;;18.93;96.60;101121.03;4959443;28;20101;-86
2022/10/21 11:30:20;;;;;;;6.90;3.53;;;;;;;18.94;97.17;101109.47;4969688;28;20456;-86